sensor_id;sensor_type;location;lat;lon;timestamp;P1;durP1;ratioP1;P2;durP2;ratioP2
29712;SDS011;16623;53.632;10.016;2023-06-04T00:00:30;4.20;;;2.20;;
29712;SDS011;16623;53.632;10.016;2023-06-04T00:02:56;4.72;;;2.10;;
29712;SDS011;16623;53.632;10.016;2023-06-04T00:05:21;5.32;;;2.53;;
29712;SDS011;16623;53.632;10.016;2023-06-04T00:07:50;4.85;;;3.10;;
29712;SDS011;16623;53.632;10.016;2023-06-04T00:10:18;4.63;;;2.50;;
29712;SDS011;16623;53.632;10.016;2023-06-04T00:12:44;5.32;;;2.78;;
29712;SDS011;16623;53.632;10.016;2023-06-04T00:15:10;5.05;;;2.33;;
29712;SDS011;16623;53.632;10.016;2023-06-04T00:17:35;3.40;;;2.50;;
29712;SDS011;16623;53.632;10.016;2023-06-04T00:20:01;5.20;;;2.38;;
29712;SDS011;16623;53.632;10.016;2023-06-04T00:22:27;5.35;;;3.08;;
29712;SDS011;16623;53.632;10.016;2023-06-04T00:24:53;6.40;;;3.67;;
29712;SDS011;16623;53.632;10.016;2023-06-04T00:27:18;7.88;;;3.03;;
29712;SDS011;16623;53.632;10.016;2023-06-04T00:29:45;7.90;;;3.78;;
29712;SDS011;16623;53.632;10.016;2023-06-04T00:32:10;5.75;;;3.00;;
29712;SDS011;16623;53.632;10.016;2023-06-04T00:34:36;5.18;;;3.00;;
29712;SDS011;16623;53.632;10.016;2023-06-04T00:37:01;5.15;;;3.20;;
29712;SDS011;16623;53.632;10.016;2023-06-04T00:39:27;7.53;;;3.95;;
29712;SDS011;16623;53.632;10.016;2023-06-04T00:41:54;5.55;;;3.03;;
29712;SDS011;16623;53.632;10.016;2023-06-04T00:44:19;5.22;;;3.30;;
29712;SDS011;16623;53.632;10.016;2023-06-04T00:46:46;5.03;;;3.20;;
29712;SDS011;16623;53.632;10.016;2023-06-04T00:49:15;4.22;;;2.80;;
29712;SDS011;16623;53.632;10.016;2023-06-04T00:51:41;5.45;;;3.15;;
29712;SDS011;16623;53.632;10.016;2023-06-04T00:54:07;5.50;;;2.95;;
29712;SDS011;16623;53.632;10.016;2023-06-04T00:56:37;5.10;;;2.88;;
29712;SDS011;16623;53.632;10.016;2023-06-04T00:59:04;8.75;;;2.92;;
29712;SDS011;16623;53.632;10.016;2023-06-04T01:01:34;4.40;;;2.97;;
29712;SDS011;16623;53.632;10.016;2023-06-04T01:04:23;8.52;;;3.00;;
29712;SDS011;16623;53.632;10.016;2023-06-04T01:06:55;6.68;;;3.00;;
29712;SDS011;16623;53.632;10.016;2023-06-04T01:09:26;5.43;;;3.22;;
29712;SDS011;16623;53.632;10.016;2023-06-04T01:11:52;6.40;;;2.95;;
29712;SDS011;16623;53.632;10.016;2023-06-04T01:14:18;5.50;;;3.00;;
29712;SDS011;16623;53.632;10.016;2023-06-04T01:22:17;8.57;;;3.78;;
29712;SDS011;16623;53.632;10.016;2023-06-04T01:24:58;5.47;;;3.17;;
29712;SDS011;16623;53.632;10.016;2023-06-04T01:27:28;5.68;;;3.10;;
29712;SDS011;16623;53.632;10.016;2023-06-04T01:29:55;6.65;;;3.30;;
29712;SDS011;16623;53.632;10.016;2023-06-04T01:32:22;5.32;;;3.30;;
29712;SDS011;16623;53.632;10.016;2023-06-04T01:34:49;7.25;;;2.95;;
29712;SDS011;16623;53.632;10.016;2023-06-04T01:37:15;5.68;;;3.72;;
29712;SDS011;16623;53.632;10.016;2023-06-04T01:39:42;6.25;;;2.75;;
29712;SDS011;16623;53.632;10.016;2023-06-04T01:42:07;4.95;;;3.35;;
29712;SDS011;16623;53.632;10.016;2023-06-04T01:44:33;5.60;;;3.10;;
29712;SDS011;16623;53.632;10.016;2023-06-04T01:46:59;8.15;;;3.83;;
29712;SDS011;16623;53.632;10.016;2023-06-04T01:49:25;5.38;;;2.95;;
29712;SDS011;16623;53.632;10.016;2023-06-04T01:51:50;5.15;;;2.97;;
29712;SDS011;16623;53.632;10.016;2023-06-04T01:54:16;4.10;;;3.13;;
29712;SDS011;16623;53.632;10.016;2023-06-04T01:56:42;5.45;;;3.10;;
29712;SDS011;16623;53.632;10.016;2023-06-04T01:59:08;5.20;;;3.47;;
29712;SDS011;16623;53.632;10.016;2023-06-04T02:01:37;6.07;;;3.00;;
29712;SDS011;16623;53.632;10.016;2023-06-04T02:04:03;4.90;;;3.03;;
29712;SDS011;16623;53.632;10.016;2023-06-04T02:06:28;4.60;;;2.90;;
29712;SDS011;16623;53.632;10.016;2023-06-04T02:08:56;5.35;;;2.95;;
29712;SDS011;16623;53.632;10.016;2023-06-04T02:11:27;6.72;;;3.38;;
29712;SDS011;16623;53.632;10.016;2023-06-04T02:13:53;3.53;;;2.65;;
29712;SDS011;16623;53.632;10.016;2023-06-04T02:16:18;5.03;;;3.15;;
29712;SDS011;16623;53.632;10.016;2023-06-04T02:18:43;8.07;;;3.53;;
29712;SDS011;16623;53.632;10.016;2023-06-04T02:21:09;5.07;;;3.05;;
29712;SDS011;16623;53.632;10.016;2023-06-04T02:23:35;4.85;;;3.20;;
29712;SDS011;16623;53.632;10.016;2023-06-04T02:26:00;5.32;;;3.30;;
29712;SDS011;16623;53.632;10.016;2023-06-04T02:28:26;6.93;;;3.30;;
29712;SDS011;16623;53.632;10.016;2023-06-04T02:30:51;5.47;;;2.72;;
29712;SDS011;16623;53.632;10.016;2023-06-04T02:33:17;5.07;;;2.83;;
29712;SDS011;16623;53.632;10.016;2023-06-04T02:35:43;5.53;;;3.20;;
29712;SDS011;16623;53.632;10.016;2023-06-04T02:38:08;4.47;;;3.05;;
29712;SDS011;16623;53.632;10.016;2023-06-04T02:40:34;5.95;;;3.38;;
29712;SDS011;16623;53.632;10.016;2023-06-04T02:43:00;7.30;;;3.53;;
29712;SDS011;16623;53.632;10.016;2023-06-04T02:45:26;6.57;;;3.42;;
29712;SDS011;16623;53.632;10.016;2023-06-04T02:47:51;5.22;;;2.97;;
29712;SDS011;16623;53.632;10.016;2023-06-04T02:50:17;7.15;;;3.10;;
29712;SDS011;16623;53.632;10.016;2023-06-04T02:52:43;5.07;;;2.97;;
29712;SDS011;16623;53.632;10.016;2023-06-04T02:55:08;10.23;;;3.28;;
29712;SDS011;16623;53.632;10.016;2023-06-04T02:57:36;13.73;;;3.67;;
29712;SDS011;16623;53.632;10.016;2023-06-04T03:00:04;8.65;;;3.22;;
29712;SDS011;16623;53.632;10.016;2023-06-04T03:02:36;7.15;;;3.22;;
29712;SDS011;16623;53.632;10.016;2023-06-04T03:05:07;3.60;;;2.67;;
29712;SDS011;16623;53.632;10.016;2023-06-04T03:07:35;6.63;;;2.88;;
29712;SDS011;16623;53.632;10.016;2023-06-04T03:10:01;4.93;;;3.15;;
29712;SDS011;16623;53.632;10.016;2023-06-04T03:12:28;7.05;;;3.83;;
29712;SDS011;16623;53.632;10.016;2023-06-04T03:14:53;7.32;;;3.38;;
29712;SDS011;16623;53.632;10.016;2023-06-04T03:17:19;7.28;;;2.45;;
29712;SDS011;16623;53.632;10.016;2023-06-04T03:19:45;5.60;;;2.92;;
29712;SDS011;16623;53.632;10.016;2023-06-04T03:22:10;6.28;;;3.25;;
29712;SDS011;16623;53.632;10.016;2023-06-04T03:24:40;5.80;;;2.30;;
29712;SDS011;16623;53.632;10.016;2023-06-04T03:27:06;5.10;;;2.92;;
29712;SDS011;16623;53.632;10.016;2023-06-04T03:29:32;5.03;;;3.20;;
29712;SDS011;16623;53.632;10.016;2023-06-04T03:31:58;5.90;;;2.78;;
29712;SDS011;16623;53.632;10.016;2023-06-04T03:34:25;6.68;;;3.22;;
29712;SDS011;16623;53.632;10.016;2023-06-04T03:36:51;5.25;;;3.13;;
29712;SDS011;16623;53.632;10.016;2023-06-04T03:39:17;4.93;;;3.13;;
29712;SDS011;16623;53.632;10.016;2023-06-04T03:41:43;5.43;;;3.08;;
29712;SDS011;16623;53.632;10.016;2023-06-04T03:44:09;4.97;;;2.92;;
29712;SDS011;16623;53.632;10.016;2023-06-04T03:46:34;5.22;;;3.05;;
29712;SDS011;16623;53.632;10.016;2023-06-04T03:49:00;5.15;;;2.58;;
29712;SDS011;16623;53.632;10.016;2023-06-04T03:51:26;4.63;;;2.88;;
29712;SDS011;16623;53.632;10.016;2023-06-04T03:53:51;5.40;;;2.67;;
29712;SDS011;16623;53.632;10.016;2023-06-04T03:56:17;4.32;;;2.45;;
29712;SDS011;16623;53.632;10.016;2023-06-04T03:58:43;7.07;;;3.00;;
29712;SDS011;16623;53.632;10.016;2023-06-04T04:01:08;4.80;;;2.53;;
29712;SDS011;16623;53.632;10.016;2023-06-04T04:03:35;3.95;;;2.55;;
29712;SDS011;16623;53.632;10.016;2023-06-04T04:06:01;3.97;;;3.03;;
29712;SDS011;16623;53.632;10.016;2023-06-04T04:08:26;6.53;;;2.88;;
29712;SDS011;16623;53.632;10.016;2023-06-04T04:10:56;6.43;;;3.03;;
29712;SDS011;16623;53.632;10.016;2023-06-04T04:13:22;4.95;;;2.95;;
29712;SDS011;16623;53.632;10.016;2023-06-04T04:15:47;7.45;;;3.67;;
29712;SDS011;16623;53.632;10.016;2023-06-04T04:18:17;4.55;;;3.28;;
29712;SDS011;16623;53.632;10.016;2023-06-04T04:20:47;7.20;;;3.90;;
29712;SDS011;16623;53.632;10.016;2023-06-04T04:23:12;9.80;;;2.75;;
29712;SDS011;16623;53.632;10.016;2023-06-04T04:25:38;7.38;;;2.90;;
29712;SDS011;16623;53.632;10.016;2023-06-04T04:28:04;11.52;;;3.22;;
29712;SDS011;16623;53.632;10.016;2023-06-04T04:30:36;5.32;;;2.80;;
29712;SDS011;16623;53.632;10.016;2023-06-04T04:33:01;6.13;;;2.78;;
29712;SDS011;16623;53.632;10.016;2023-06-04T04:35:30;4.13;;;2.72;;
29712;SDS011;16623;53.632;10.016;2023-06-04T04:37:57;7.15;;;3.13;;
29712;SDS011;16623;53.632;10.016;2023-06-04T04:40:23;6.60;;;2.95;;
29712;SDS011;16623;53.632;10.016;2023-06-04T04:42:49;6.28;;;2.85;;
29712;SDS011;16623;53.632;10.016;2023-06-04T04:45:14;5.18;;;2.88;;
29712;SDS011;16623;53.632;10.016;2023-06-04T04:47:42;5.93;;;2.97;;
29712;SDS011;16623;53.632;10.016;2023-06-04T04:50:07;4.95;;;2.40;;
29712;SDS011;16623;53.632;10.016;2023-06-04T04:52:33;6.10;;;2.60;;
29712;SDS011;16623;53.632;10.016;2023-06-04T04:54:59;6.00;;;2.63;;
29712;SDS011;16623;53.632;10.016;2023-06-04T04:57:24;6.90;;;2.50;;
29712;SDS011;16623;53.632;10.016;2023-06-04T04:59:50;4.57;;;2.25;;
29712;SDS011;16623;53.632;10.016;2023-06-04T05:02:16;9.63;;;2.70;;
29712;SDS011;16623;53.632;10.016;2023-06-04T05:04:41;6.03;;;2.55;;
29712;SDS011;16623;53.632;10.016;2023-06-04T05:07:07;8.73;;;3.20;;
29712;SDS011;16623;53.632;10.016;2023-06-04T05:09:32;5.78;;;2.58;;
29712;SDS011;16623;53.632;10.016;2023-06-04T05:11:58;9.52;;;3.03;;
29712;SDS011;16623;53.632;10.016;2023-06-04T05:14:23;7.15;;;2.58;;
29712;SDS011;16623;53.632;10.016;2023-06-04T05:16:49;11.77;;;2.75;;
29712;SDS011;16623;53.632;10.016;2023-06-04T05:19:15;5.93;;;2.17;;
29712;SDS011;16623;53.632;10.016;2023-06-04T05:21:41;8.90;;;2.88;;
29712;SDS011;16623;53.632;10.016;2023-06-04T05:24:08;7.55;;;2.60;;
29712;SDS011;16623;53.632;10.016;2023-06-04T05:26:34;11.65;;;3.28;;
29712;SDS011;16623;53.632;10.016;2023-06-04T05:29:00;7.57;;;3.00;;
29712;SDS011;16623;53.632;10.016;2023-06-04T05:31:26;5.93;;;2.42;;
29712;SDS011;16623;53.632;10.016;2023-06-04T05:33:52;9.13;;;2.38;;
29712;SDS011;16623;53.632;10.016;2023-06-04T05:36:17;10.98;;;2.70;;
29712;SDS011;16623;53.632;10.016;2023-06-04T05:38:45;10.43;;;2.97;;
29712;SDS011;16623;53.632;10.016;2023-06-04T05:41:11;7.85;;;2.65;;
29712;SDS011;16623;53.632;10.016;2023-06-04T05:43:37;5.60;;;2.63;;
29712;SDS011;16623;53.632;10.016;2023-06-04T05:46:02;7.35;;;2.70;;
29712;SDS011;16623;53.632;10.016;2023-06-04T05:48:28;12.13;;;2.55;;
29712;SDS011;16623;53.632;10.016;2023-06-04T05:50:53;8.85;;;2.42;;
29712;SDS011;16623;53.632;10.016;2023-06-04T05:53:19;13.18;;;3.17;;
29712;SDS011;16623;53.632;10.016;2023-06-04T05:55:44;6.75;;;2.67;;
29712;SDS011;16623;53.632;10.016;2023-06-04T05:58:10;7.47;;;2.50;;
29712;SDS011;16623;53.632;10.016;2023-06-04T06:00:36;10.75;;;2.75;;
29712;SDS011;16623;53.632;10.016;2023-06-04T06:03:02;12.93;;;2.80;;
29712;SDS011;16623;53.632;10.016;2023-06-04T06:05:30;9.73;;;2.83;;
29712;SDS011;16623;53.632;10.016;2023-06-04T06:07:55;9.07;;;2.50;;
29712;SDS011;16623;53.632;10.016;2023-06-04T06:10:21;9.00;;;2.40;;
29712;SDS011;16623;53.632;10.016;2023-06-04T06:12:47;8.82;;;2.50;;
29712;SDS011;16623;53.632;10.016;2023-06-04T06:15:12;7.57;;;2.53;;
29712;SDS011;16623;53.632;10.016;2023-06-04T06:17:38;9.55;;;2.53;;
29712;SDS011;16623;53.632;10.016;2023-06-04T06:20:03;7.40;;;2.20;;
29712;SDS011;16623;53.632;10.016;2023-06-04T06:22:33;6.90;;;2.40;;
29712;SDS011;16623;53.632;10.016;2023-06-04T06:24:59;5.60;;;2.30;;
29712;SDS011;16623;53.632;10.016;2023-06-04T06:27:24;6.13;;;2.00;;
29712;SDS011;16623;53.632;10.016;2023-06-04T06:29:50;5.70;;;2.88;;
29712;SDS011;16623;53.632;10.016;2023-06-04T06:32:16;8.45;;;2.25;;
29712;SDS011;16623;53.632;10.016;2023-06-04T06:34:41;5.97;;;2.22;;
29712;SDS011;16623;53.632;10.016;2023-06-04T06:37:07;9.40;;;1.90;;
29712;SDS011;16623;53.632;10.016;2023-06-04T06:39:32;8.73;;;2.30;;
29712;SDS011;16623;53.632;10.016;2023-06-04T06:41:58;9.88;;;2.85;;
29712;SDS011;16623;53.632;10.016;2023-06-04T06:44:23;11.93;;;2.72;;
29712;SDS011;16623;53.632;10.016;2023-06-04T06:46:49;7.68;;;2.40;;
29712;SDS011;16623;53.632;10.016;2023-06-04T06:49:15;8.98;;;2.53;;
29712;SDS011;16623;53.632;10.016;2023-06-04T06:51:41;8.00;;;3.17;;
29712;SDS011;16623;53.632;10.016;2023-06-04T06:54:08;8.25;;;2.58;;
29712;SDS011;16623;53.632;10.016;2023-06-04T06:56:34;8.02;;;3.03;;
29712;SDS011;16623;53.632;10.016;2023-06-04T06:59:00;7.38;;;2.17;;
29712;SDS011;16623;53.632;10.016;2023-06-04T07:01:26;8.32;;;2.28;;
29712;SDS011;16623;53.632;10.016;2023-06-04T07:03:51;9.75;;;2.13;;
29712;SDS011;16623;53.632;10.016;2023-06-04T07:06:17;9.52;;;1.90;;
29712;SDS011;16623;53.632;10.016;2023-06-04T07:08:42;7.68;;;2.30;;
29712;SDS011;16623;53.632;10.016;2023-06-04T07:11:08;5.15;;;2.00;;
29712;SDS011;16623;53.632;10.016;2023-06-04T07:13:37;4.45;;;2.22;;
29712;SDS011;16623;53.632;10.016;2023-06-04T07:16:03;4.57;;;2.13;;
29712;SDS011;16623;53.632;10.016;2023-06-04T07:18:29;7.53;;;2.20;;
29712;SDS011;16623;53.632;10.016;2023-06-04T07:20:54;7.90;;;2.55;;
29712;SDS011;16623;53.632;10.016;2023-06-04T07:23:20;8.13;;;2.40;;
29712;SDS011;16623;53.632;10.016;2023-06-04T07:25:46;7.15;;;2.50;;
29712;SDS011;16623;53.632;10.016;2023-06-04T07:28:11;5.88;;;2.20;;
29712;SDS011;16623;53.632;10.016;2023-06-04T07:30:37;10.70;;;2.75;;
29712;SDS011;16623;53.632;10.016;2023-06-04T07:33:03;7.47;;;2.17;;
29712;SDS011;16623;53.632;10.016;2023-06-04T07:35:29;5.47;;;1.90;;
29712;SDS011;16623;53.632;10.016;2023-06-04T07:37:54;5.97;;;2.33;;
29712;SDS011;16623;53.632;10.016;2023-06-04T07:40:20;4.35;;;2.38;;
29712;SDS011;16623;53.632;10.016;2023-06-04T07:42:46;4.43;;;2.08;;
29712;SDS011;16623;53.632;10.016;2023-06-04T07:45:12;4.22;;;2.03;;
29712;SDS011;16623;53.632;10.016;2023-06-04T07:47:38;5.90;;;1.92;;
29712;SDS011;16623;53.632;10.016;2023-06-04T07:50:04;6.15;;;1.80;;
29712;SDS011;16623;53.632;10.016;2023-06-04T07:52:31;5.97;;;1.90;;
29712;SDS011;16623;53.632;10.016;2023-06-04T07:54:57;7.88;;;2.03;;
29712;SDS011;16623;53.632;10.016;2023-06-04T07:57:24;7.70;;;2.67;;
29712;SDS011;16623;53.632;10.016;2023-06-04T07:59:49;7.10;;;1.95;;
29712;SDS011;16623;53.632;10.016;2023-06-04T08:02:16;5.28;;;1.73;;
29712;SDS011;16623;53.632;10.016;2023-06-04T08:04:41;6.00;;;1.77;;
29712;SDS011;16623;53.632;10.016;2023-06-04T08:07:07;7.22;;;1.83;;
29712;SDS011;16623;53.632;10.016;2023-06-04T08:09:33;5.78;;;2.00;;
29712;SDS011;16623;53.632;10.016;2023-06-04T08:11:59;5.30;;;1.73;;
29712;SDS011;16623;53.632;10.016;2023-06-04T08:14:25;4.95;;;2.40;;
29712;SDS011;16623;53.632;10.016;2023-06-04T08:16:52;4.15;;;1.60;;
29712;SDS011;16623;53.632;10.016;2023-06-04T08:19:18;4.72;;;1.75;;
29712;SDS011;16623;53.632;10.016;2023-06-04T08:21:44;4.65;;;1.77;;
29712;SDS011;16623;53.632;10.016;2023-06-04T08:24:10;6.38;;;2.72;;
29712;SDS011;16623;53.632;10.016;2023-06-04T08:26:36;6.78;;;2.22;;
29712;SDS011;16623;53.632;10.016;2023-06-04T08:29:02;3.50;;;1.88;;
29712;SDS011;16623;53.632;10.016;2023-06-04T08:31:29;4.25;;;1.60;;
29712;SDS011;16623;53.632;10.016;2023-06-04T08:33:55;10.13;;;1.67;;
29712;SDS011;16623;53.632;10.016;2023-06-04T08:36:20;4.25;;;1.40;;
29712;SDS011;16623;53.632;10.016;2023-06-04T08:38:46;3.33;;;1.63;;
29712;SDS011;16623;53.632;10.016;2023-06-04T08:41:17;6.07;;;2.33;;
29712;SDS011;16623;53.632;10.016;2023-06-04T08:43:46;5.07;;;1.25;;
29712;SDS011;16623;53.632;10.016;2023-06-04T08:46:15;7.18;;;1.70;;
29712;SDS011;16623;53.632;10.016;2023-06-04T08:48:42;7.85;;;1.55;;
29712;SDS011;16623;53.632;10.016;2023-06-04T08:51:08;4.88;;;1.40;;
29712;SDS011;16623;53.632;10.016;2023-06-04T08:53:35;8.05;;;1.55;;
29712;SDS011;16623;53.632;10.016;2023-06-04T08:56:01;5.03;;;1.35;;
29712;SDS011;16623;53.632;10.016;2023-06-04T08:58:30;3.20;;;1.17;;
29712;SDS011;16623;53.632;10.016;2023-06-04T09:00:57;7.07;;;1.85;;
29712;SDS011;16623;53.632;10.016;2023-06-04T09:03:23;4.43;;;1.50;;
29712;SDS011;16623;53.632;10.016;2023-06-04T09:05:51;3.53;;;1.55;;
29712;SDS011;16623;53.632;10.016;2023-06-04T09:08:17;5.30;;;1.67;;
29712;SDS011;16623;53.632;10.016;2023-06-04T09:10:46;4.35;;;1.90;;
29712;SDS011;16623;53.632;10.016;2023-06-04T09:13:16;3.53;;;1.55;;
29712;SDS011;16623;53.632;10.016;2023-06-04T09:15:43;7.05;;;1.20;;
29712;SDS011;16623;53.632;10.016;2023-06-04T09:18:09;3.53;;;1.20;;
29712;SDS011;16623;53.632;10.016;2023-06-04T09:20:34;3.38;;;1.20;;
29712;SDS011;16623;53.632;10.016;2023-06-04T09:23:00;1.85;;;1.05;;
29712;SDS011;16623;53.632;10.016;2023-06-04T09:25:26;7.93;;;1.23;;
29712;SDS011;16623;53.632;10.016;2023-06-04T09:27:53;2.95;;;1.38;;
29712;SDS011;16623;53.632;10.016;2023-06-04T09:30:22;2.92;;;1.30;;
29712;SDS011;16623;53.632;10.016;2023-06-04T09:32:48;4.82;;;1.30;;
29712;SDS011;16623;53.632;10.016;2023-06-04T09:35:15;2.28;;;1.10;;
29712;SDS011;16623;53.632;10.016;2023-06-04T09:37:42;4.22;;;1.42;;
29712;SDS011;16623;53.632;10.016;2023-06-04T09:40:21;3.55;;;1.35;;
29712;SDS011;16623;53.632;10.016;2023-06-04T09:42:48;5.25;;;1.27;;
29712;SDS011;16623;53.632;10.016;2023-06-04T09:45:32;2.25;;;1.10;;
29712;SDS011;16623;53.632;10.016;2023-06-04T09:47:59;4.80;;;1.58;;
29712;SDS011;16623;53.632;10.016;2023-06-04T09:50:34;2.35;;;1.20;;
29712;SDS011;16623;53.632;10.016;2023-06-04T09:53:12;2.33;;;1.10;;
29712;SDS011;16623;53.632;10.016;2023-06-04T09:55:38;5.78;;;1.75;;
29712;SDS011;16623;53.632;10.016;2023-06-04T09:58:04;3.85;;;1.48;;
29712;SDS011;16623;53.632;10.016;2023-06-04T10:00:30;4.90;;;1.80;;
29712;SDS011;16623;53.632;10.016;2023-06-04T10:02:57;3.75;;;1.63;;
29712;SDS011;16623;53.632;10.016;2023-06-04T10:05:26;5.97;;;1.63;;
29712;SDS011;16623;53.632;10.016;2023-06-04T10:07:53;4.47;;;1.83;;
29712;SDS011;16623;53.632;10.016;2023-06-04T10:10:23;4.13;;;1.60;;
29712;SDS011;16623;53.632;10.016;2023-06-04T10:12:53;5.18;;;1.50;;
29712;SDS011;16623;53.632;10.016;2023-06-04T10:15:24;3.72;;;1.25;;
29712;SDS011;16623;53.632;10.016;2023-06-04T10:17:50;2.72;;;1.25;;
29712;SDS011;16623;53.632;10.016;2023-06-04T10:20:17;4.68;;;1.40;;
29712;SDS011;16623;53.632;10.016;2023-06-04T10:22:45;5.90;;;1.60;;
29712;SDS011;16623;53.632;10.016;2023-06-04T10:25:12;5.38;;;1.75;;
29712;SDS011;16623;53.632;10.016;2023-06-04T10:27:38;3.08;;;1.52;;
29712;SDS011;16623;53.632;10.016;2023-06-04T10:30:05;6.72;;;1.98;;
29712;SDS011;16623;53.632;10.016;2023-06-04T10:32:31;5.82;;;1.73;;
29712;SDS011;16623;53.632;10.016;2023-06-04T10:34:57;6.97;;;1.40;;
29712;SDS011;16623;53.632;10.016;2023-06-04T10:37:23;3.78;;;1.85;;
29712;SDS011;16623;53.632;10.016;2023-06-04T10:39:53;4.32;;;1.38;;
29712;SDS011;16623;53.632;10.016;2023-06-04T10:42:21;5.03;;;1.73;;
29712;SDS011;16623;53.632;10.016;2023-06-04T10:44:48;8.18;;;1.52;;
29712;SDS011;16623;53.632;10.016;2023-06-04T10:47:21;3.72;;;1.67;;
29712;SDS011;16623;53.632;10.016;2023-06-04T10:49:51;6.03;;;1.50;;
29712;SDS011;16623;53.632;10.016;2023-06-04T10:52:18;2.78;;;1.80;;
29712;SDS011;16623;53.632;10.016;2023-06-04T10:54:45;2.75;;;1.48;;
29712;SDS011;16623;53.632;10.016;2023-06-04T10:57:16;2.97;;;1.52;;
29712;SDS011;16623;53.632;10.016;2023-06-04T10:59:55;4.30;;;1.45;;
29712;SDS011;16623;53.632;10.016;2023-06-04T11:02:21;6.45;;;1.67;;
29712;SDS011;16623;53.632;10.016;2023-06-04T11:04:47;2.28;;;1.35;;
29712;SDS011;16623;53.632;10.016;2023-06-04T11:07:41;3.03;;;1.40;;
29712;SDS011;16623;53.632;10.016;2023-06-04T11:10:09;2.22;;;1.63;;
29712;SDS011;16623;53.632;10.016;2023-06-04T11:12:44;4.03;;;1.50;;
29712;SDS011;16623;53.632;10.016;2023-06-04T11:15:11;1.85;;;1.33;;
29712;SDS011;16623;53.632;10.016;2023-06-04T11:17:37;2.80;;;1.38;;
29712;SDS011;16623;53.632;10.016;2023-06-04T11:20:19;7.40;;;1.45;;
29712;SDS011;16623;53.632;10.016;2023-06-04T11:25:18;4.47;;;1.55;;
29712;SDS011;16623;53.632;10.016;2023-06-04T11:27:44;3.40;;;1.30;;
29712;SDS011;16623;53.632;10.016;2023-06-04T11:30:11;5.88;;;1.52;;
29712;SDS011;16623;53.632;10.016;2023-06-04T11:32:37;2.90;;;1.75;;
29712;SDS011;16623;53.632;10.016;2023-06-04T11:35:03;4.18;;;1.52;;
29712;SDS011;16623;53.632;10.016;2023-06-04T11:37:32;5.18;;;1.65;;
29712;SDS011;16623;53.632;10.016;2023-06-04T11:39:58;8.35;;;1.42;;
29712;SDS011;16623;53.632;10.016;2023-06-04T11:42:26;3.53;;;1.40;;
29712;SDS011;16623;53.632;10.016;2023-06-04T11:44:58;7.70;;;1.67;;
29712;SDS011;16623;53.632;10.016;2023-06-04T11:47:24;5.53;;;1.70;;
29712;SDS011;16623;53.632;10.016;2023-06-04T11:49:57;4.45;;;2.00;;
29712;SDS011;16623;53.632;10.016;2023-06-04T11:52:24;4.90;;;1.35;;
29712;SDS011;16623;53.632;10.016;2023-06-04T11:54:50;1.98;;;1.45;;
29712;SDS011;16623;53.632;10.016;2023-06-04T11:57:19;7.13;;;1.50;;
29712;SDS011;16623;53.632;10.016;2023-06-04T11:59:44;7.93;;;2.00;;
29712;SDS011;16623;53.632;10.016;2023-06-04T12:02:10;2.03;;;1.33;;
29712;SDS011;16623;53.632;10.016;2023-06-04T12:04:36;6.30;;;1.73;;
29712;SDS011;16623;53.632;10.016;2023-06-04T12:07:02;4.22;;;2.15;;
29712;SDS011;16623;53.632;10.016;2023-06-04T12:09:31;3.00;;;1.50;;
29712;SDS011;16623;53.632;10.016;2023-06-04T12:12:02;3.25;;;1.70;;
29712;SDS011;16623;53.632;10.016;2023-06-04T12:14:29;4.82;;;2.08;;
29712;SDS011;16623;53.632;10.016;2023-06-04T12:17:08;5.32;;;1.75;;
29712;SDS011;16623;53.632;10.016;2023-06-04T12:19:44;3.85;;;1.02;;
29712;SDS011;16623;53.632;10.016;2023-06-04T12:22:14;5.13;;;1.50;;
29712;SDS011;16623;53.632;10.016;2023-06-04T12:24:50;2.08;;;1.25;;
29712;SDS011;16623;53.632;10.016;2023-06-04T12:27:20;5.32;;;1.48;;
29712;SDS011;16623;53.632;10.016;2023-06-04T12:29:54;2.95;;;1.60;;
29712;SDS011;16623;53.632;10.016;2023-06-04T12:32:23;4.65;;;1.55;;
29712;SDS011;16623;53.632;10.016;2023-06-04T12:34:49;3.10;;;2.00;;
29712;SDS011;16623;53.632;10.016;2023-06-04T12:37:15;5.75;;;1.42;;
29712;SDS011;16623;53.632;10.016;2023-06-04T12:39:41;1.52;;;1.10;;
29712;SDS011;16623;53.632;10.016;2023-06-04T12:42:06;3.90;;;1.40;;
29712;SDS011;16623;53.632;10.016;2023-06-04T12:44:33;3.60;;;1.42;;
29712;SDS011;16623;53.632;10.016;2023-06-04T12:47:00;2.45;;;1.38;;
29712;SDS011;16623;53.632;10.016;2023-06-04T12:49:26;1.85;;;1.20;;
29712;SDS011;16623;53.632;10.016;2023-06-04T12:51:51;5.97;;;2.20;;
29712;SDS011;16623;53.632;10.016;2023-06-04T12:54:17;8.18;;;1.17;;
29712;SDS011;16623;53.632;10.016;2023-06-04T12:56:43;2.17;;;1.30;;
29712;SDS011;16623;53.632;10.016;2023-06-04T12:59:09;2.58;;;1.33;;
29712;SDS011;16623;53.632;10.016;2023-06-04T13:01:36;6.80;;;1.40;;
29712;SDS011;16623;53.632;10.016;2023-06-04T13:04:04;4.85;;;1.30;;
29712;SDS011;16623;53.632;10.016;2023-06-04T13:06:31;4.45;;;1.70;;
29712;SDS011;16623;53.632;10.016;2023-06-04T13:08:56;5.05;;;1.38;;
29712;SDS011;16623;53.632;10.016;2023-06-04T13:11:22;5.65;;;1.90;;
29712;SDS011;16623;53.632;10.016;2023-06-04T13:13:47;4.50;;;1.70;;
29712;SDS011;16623;53.632;10.016;2023-06-04T13:16:13;2.83;;;1.10;;
29712;SDS011;16623;53.632;10.016;2023-06-04T13:18:39;3.28;;;1.75;;
29712;SDS011;16623;53.632;10.016;2023-06-04T13:21:04;3.28;;;1.13;;
29712;SDS011;16623;53.632;10.016;2023-06-04T13:23:30;2.05;;;1.30;;
29712;SDS011;16623;53.632;10.016;2023-06-04T13:25:56;2.03;;;1.20;;
29712;SDS011;16623;53.632;10.016;2023-06-04T13:28:21;2.72;;;1.23;;
29712;SDS011;16623;53.632;10.016;2023-06-04T13:30:47;4.47;;;1.35;;
29712;SDS011;16623;53.632;10.016;2023-06-04T13:33:13;2.95;;;1.30;;
29712;SDS011;16623;53.632;10.016;2023-06-04T13:35:39;3.05;;;1.60;;
29712;SDS011;16623;53.632;10.016;2023-06-04T13:38:05;3.45;;;1.23;;
29712;SDS011;16623;53.632;10.016;2023-06-04T13:40:34;3.78;;;1.70;;
29712;SDS011;16623;53.632;10.016;2023-06-04T13:43:00;5.63;;;1.40;;
29712;SDS011;16623;53.632;10.016;2023-06-04T13:45:26;2.47;;;1.48;;
29712;SDS011;16623;53.632;10.016;2023-06-04T13:47:51;8.43;;;2.03;;
29712;SDS011;16623;53.632;10.016;2023-06-04T13:50:17;3.75;;;1.60;;
29712;SDS011;16623;53.632;10.016;2023-06-04T13:52:43;2.72;;;1.42;;
29712;SDS011;16623;53.632;10.016;2023-06-04T13:55:09;2.38;;;1.13;;
29712;SDS011;16623;53.632;10.016;2023-06-04T13:57:36;11.60;;;1.80;;
29712;SDS011;16623;53.632;10.016;2023-06-04T14:00:02;3.28;;;1.70;;
29712;SDS011;16623;53.632;10.016;2023-06-04T14:02:29;2.75;;;1.60;;
29712;SDS011;16623;53.632;10.016;2023-06-04T14:04:55;2.75;;;1.90;;
29712;SDS011;16623;53.632;10.016;2023-06-04T14:07:20;3.17;;;1.80;;
29712;SDS011;16623;53.632;10.016;2023-06-04T14:09:46;5.65;;;1.83;;
29712;SDS011;16623;53.632;10.016;2023-06-04T14:12:13;7.72;;;2.10;;
29712;SDS011;16623;53.632;10.016;2023-06-04T14:14:42;2.22;;;1.42;;
29712;SDS011;16623;53.632;10.016;2023-06-04T14:17:08;3.55;;;1.70;;
29712;SDS011;16623;53.632;10.016;2023-06-04T14:19:33;6.50;;;1.73;;
29712;SDS011;16623;53.632;10.016;2023-06-04T14:22:00;4.85;;;1.58;;
29712;SDS011;16623;53.632;10.016;2023-06-04T14:24:26;3.53;;;1.85;;
29712;SDS011;16623;53.632;10.016;2023-06-04T14:26:52;4.90;;;1.67;;
29712;SDS011;16623;53.632;10.016;2023-06-04T14:29:18;7.03;;;1.60;;
29712;SDS011;16623;53.632;10.016;2023-06-04T14:31:43;6.53;;;1.58;;
29712;SDS011;16623;53.632;10.016;2023-06-04T14:34:10;4.78;;;1.65;;
29712;SDS011;16623;53.632;10.016;2023-06-04T14:36:35;2.70;;;1.70;;
29712;SDS011;16623;53.632;10.016;2023-06-04T14:39:01;4.78;;;1.92;;